Time;durP1;ratioP1;P1;durP2;ratioP2;P2;SDS_P1;SDS_P2;PMS_P1;PMS_P2;Temp;Humidity;BMP_temperature;BMP_pressure;BME280_temperature;BME280_humidity;BME280_pressure;Samples;Min_cycle;Max_cycle;Signal;HPM_P1;HPM_P2
2022/09/14 00:01:59;;;;;;;3.58;1.17;;;;;;;;;;5070025;28;20050;-65
2022/09/14 00:04:25;;;;;;;4.20;1.20;;;;;;;;;;5073039;28;20036;-65
2022/09/14 00:06:51;;;;;;;2.45;1.30;;;;;;;;;;5070460;28;20048;-65
2022/09/14 00:09:19;;;;;;;4.03;1.20;;;;;;;;;;5072083;28;20460;-65
2022/09/14 00:11:45;;;;;;;3.35;1.08;;;;;;;;;;5071406;28;20041;-64
2022/09/14 00:14:11;;;;;;;2.55;1.40;;;;;;;;;;5072364;28;20071;-65
2022/09/14 00:16:39;;;;;;;6.10;1.65;;;;;;;;;;5069933;28;20036;-64
2022/09/14 00:19:06;;;;;;;3.55;1.50;;;;;;;;;;5071079;28;20120;-65
2022/09/14 00:21:33;;;;;;;4.07;1.60;;;;;;;;;;5070783;28;20109;-65
2022/09/14 00:23:59;;;;;;;5.47;1.50;;;;;;;;;;5072508;28;20040;-65
2022/09/14 00:26:26;;;;;;;4.63;1.30;;;;;;;;;;5071091;28;20474;-65
2022/09/14 00:28:53;;;;;;;4.68;1.30;;;;;;;;;;5070664;28;20086;-65
2022/09/14 00:31:20;;;;;;;4.35;1.63;;;;;;;;;;5070505;28;20044;-65
2022/09/14 00:33:47;;;;;;;2.95;1.27;;;;;;;;;;5072927;28;20040;-65
2022/09/14 00:36:15;;;;;;;2.08;1.20;;;;;;;;;;5071549;28;20482;-65
2022/09/14 00:38:41;;;;;;;4.05;1.45;;;;;;;;;;5071444;28;20063;-65
2022/09/14 00:41:08;;;;;;;3.13;1.00;;;;;;;;;;5071279;28;20036;-65
2022/09/14 00:43:51;;;;;;;3.42;0.98;;;;;;;;;;5071310;28;20407;-65
2022/09/14 00:46:17;;;;;;;2.25;0.90;;;;;;;;;;5071515;28;20505;-65
2022/09/14 00:48:43;;;;;;;3.08;1.25;;;;;;;;;;5070793;28;20040;-65
2022/09/14 00:51:09;;;;;;;2.13;1.10;;;;;;;;;;5068339;28;20040;-64
2022/09/14 00:53:35;;;;;;;5.32;1.20;;;;;;;;;;5072057;28;20379;-65
2022/09/14 00:56:01;;;;;;;4.47;1.27;;;;;;;;;;5069897;28;20041;-65
2022/09/14 00:58:27;;;;;;;2.78;1.02;;;;;;;;;;5070121;28;20040;-65
2022/09/14 01:00:53;;;;;;;2.85;1.27;;;;;;;;;;5070649;28;20112;-65
2022/09/14 01:03:20;;;;;;;2.00;1.17;;;;;;;;;;5069422;28;20252;-65
2022/09/14 01:05:55;;;;;;;1.83;1.10;;;;;;;;;;5069976;28;20415;-65
2022/09/14 01:08:30;;;;;;;4.00;1.58;;;;;;;;;;5070391;28;20493;-65
2022/09/14 01:10:56;;;;;;;2.15;1.05;;;;;;;;;;5071079;28;20047;-65
2022/09/14 01:13:36;;;;;;;3.80;1.25;;;;;;;;;;5070593;28;20043;-65
2022/09/14 01:16:02;;;;;;;3.30;1.15;;;;;;;;;;5070083;28;20079;-65
2022/09/14 01:18:32;;;;;;;2.67;1.00;;;;;;;;;;5070671;28;20070;-65
2022/09/14 01:21:08;;;;;;;1.52;0.98;;;;;;;;;;5070679;28;20444;-65
2022/09/14 01:23:43;;;;;;;3.45;1.30;;;;;;;;;;5070209;28;20044;-65
2022/09/14 01:26:25;;;;;;;3.50;1.70;;;;;;;;;;5070268;28;20555;-65
2022/09/14 01:28:57;;;;;;;2.97;1.10;;;;;;;;;;5061769;28;20287;-65
2022/09/14 01:31:29;;;;;;;2.05;1.20;;;;;;;;;;5069670;28;20128;-65
2022/09/14 01:34:04;;;;;;;1.95;0.90;;;;;;;;;;5070261;28;20490;-65
2022/09/14 01:36:33;;;;;;;2.10;1.10;;;;;;;;;;5069672;28;20039;-65
2022/09/14 01:39:00;;;;;;;2.58;1.05;;;;;;;;;;5069472;28;20044;-65
2022/09/14 01:41:30;;;;;;;2.63;1.23;;;;;;;;;;5069962;28;20592;-66
2022/09/14 01:44:03;;;;;;;2.00;0.90;;;;;;;;;;5070384;28;20086;-65
2022/09/14 01:46:33;;;;;;;2.50;1.20;;;;;;;;;;5069927;28;20052;-65
2022/09/14 01:49:06;;;;;;;3.50;1.37;;;;;;;;;;5069165;28;20502;-66
2022/09/14 01:51:45;;;;;;;3.42;1.30;;;;;;;;;;5064943;28;20040;-65
2022/09/14 01:54:24;;;;;;;3.17;1.10;;;;;;;;;;5071139;28;20040;-65
2022/09/14 01:56:56;;;;;;;2.92;1.40;;;;;;;;;;5069190;28;20123;-65
2022/09/14 01:59:27;;;;;;;3.42;1.60;;;;;;;;;;5070085;28;20040;-65
2022/09/14 02:01:56;;;;;;;2.75;1.23;;;;;;;;;;5067828;28;20050;-66
2022/09/14 02:04:27;;;;;;;3.22;1.52;;;;;;;;;;5068578;28;20106;-66
2022/09/14 02:06:55;;;;;;;1.65;1.20;;;;;;;;;;5068059;28;20041;-65
2022/09/14 02:09:25;;;;;;;2.47;1.67;;;;;;;;;;5070161;28;20505;-65
2022/09/14 02:11:51;;;;;;;4.82;2.10;;;;;;;;;;5066976;28;20045;-65
2022/09/14 02:14:17;;;;;;;3.05;2.05;;;;;;;;;;5068665;28;20113;-65
2022/09/14 02:16:45;;;;;;;2.60;1.73;;;;;;;;;;5067642;28;20053;-65
2022/09/14 02:19:11;;;;;;;2.78;1.90;;;;;;;;;;5070664;28;20044;-65
2022/09/14 02:21:37;;;;;;;5.20;2.38;;;;;;;;;;5069985;28;20490;-65
2022/09/14 02:24:04;;;;;;;3.67;1.48;;;;;;;;;;5070228;28;20052;-66
2022/09/14 02:26:30;;;;;;;4.40;1.77;;;;;;;;;;5068750;28;20040;-65
2022/09/14 02:28:56;;;;;;;2.72;1.63;;;;;;;;;;5070725;28;20036;-65
2022/09/14 02:31:34;;;;;;;5.05;1.70;;;;;;;;;;5069666;28;20040;-65
2022/09/14 02:34:00;;;;;;;3.88;1.30;;;;;;;;;;5066337;28;20044;-66
2022/09/14 02:36:52;;;;;;;2.67;1.42;;;;;;;;;;5068476;28;20036;-65
2022/09/14 02:39:37;;;;;;;2.75;1.30;;;;;;;;;;5068778;28;20040;-65
2022/09/14 02:42:06;;;;;;;3.28;1.20;;;;;;;;;;5069578;28;20452;-65
2022/09/14 02:44:51;;;;;;;3.08;1.10;;;;;;;;;;5069903;28;20140;-65
2022/09/14 02:47:49;;;;;;;3.03;1.23;;;;;;;;;;5066850;28;20036;-65
2022/09/14 02:50:15;;;;;;;2.03;1.00;;;;;;;;;;5058230;28;20080;-65
2022/09/14 02:52:41;;;;;;;1.60;1.10;;;;;;;;;;5069544;28;20536;-65
2022/09/14 02:55:10;;;;;;;2.47;1.10;;;;;;;;;;5069290;28;20037;-65
2022/09/14 02:57:54;;;;;;;6.75;1.42;;;;;;;;;;5068870;28;20032;-65
2022/09/14 03:00:20;;;;;;;2.30;1.40;;;;;;;;;;5069820;28;20473;-65
2022/09/14 03:02:46;;;;;;;2.95;1.70;;;;;;;;;;5069491;28;20040;-65
2022/09/14 03:05:12;;;;;;;2.42;1.38;;;;;;;;;;5069369;28;20123;-65
2022/09/14 03:07:39;;;;;;;3.53;1.40;;;;;;;;;;5067876;28;20048;-65
2022/09/14 03:10:05;;;;;;;3.47;1.40;;;;;;;;;;5069603;28;20048;-65
2022/09/14 03:12:31;;;;;;;3.30;1.65;;;;;;;;;;5068307;28;20498;-66
2022/09/14 03:14:57;;;;;;;1.90;1.50;;;;;;;;;;5069584;28;20046;-65
2022/09/14 03:17:23;;;;;;;1.58;1.10;;;;;;;;;;5067590;28;20094;-66
2022/09/14 03:19:49;;;;;;;2.92;1.35;;;;;;;;;;5069848;28;20037;-65
2022/09/14 03:22:15;;;;;;;1.60;1.23;;;;;;;;;;5069182;28;20150;-66
2022/09/14 03:24:41;;;;;;;4.65;1.60;;;;;;;;;;5068693;28;20113;-65
2022/09/14 03:27:07;;;;;;;6.05;1.48;;;;;;;;;;5067589;28;20522;-65
2022/09/14 03:29:33;;;;;;;2.97;1.60;;;;;;;;;;5069471;28;20040;-65
2022/09/14 03:31:59;;;;;;;2.65;1.42;;;;;;;;;;5068847;28;20094;-65
2022/09/14 03:34:25;;;;;;;3.95;1.83;;;;;;;;;;5069306;28;20422;-65
2022/09/14 03:36:51;;;;;;;2.50;1.60;;;;;;;;;;5070161;28;20058;-64
2022/09/14 03:39:17;;;;;;;2.65;1.50;;;;;;;;;;5072910;28;20123;-65
2022/09/14 03:41:43;;;;;;;3.50;1.40;;;;;;;;;;5072767;28;20044;-65
2022/09/14 03:44:09;;;;;;;4.72;1.50;;;;;;;;;;5071401;28;20049;-65
2022/09/14 03:46:35;;;;;;;3.97;1.40;;;;;;;;;;5066724;28;20406;-65
2022/09/14 03:49:01;;;;;;;2.05;1.20;;;;;;;;;;5070428;28;20040;-64
2022/09/14 03:51:27;;;;;;;2.65;1.05;;;;;;;;;;5073407;28;20044;-65
2022/09/14 03:53:53;;;;;;;1.83;1.40;;;;;;;;;;5073475;28;20461;-65
2022/09/14 03:56:21;;;;;;;3.92;1.30;;;;;;;;;;5065402;28;20134;-65
2022/09/14 03:58:48;;;;;;;2.90;1.58;;;;;;;;;;5070122;28;20248;-65
2022/09/14 04:01:15;;;;;;;2.03;1.17;;;;;;;;;;5071642;28;20068;-65
2022/09/14 04:03:42;;;;;;;2.92;1.77;;;;;;;;;;5061975;28;20040;-64
2022/09/14 04:06:08;;;;;;;5.22;1.92;;;;;;;;;;5067026;28;20063;-65
2022/09/14 04:08:35;;;;;;;4.10;2.00;;;;;;;;;;5072215;28;20037;-64
2022/09/14 04:11:09;;;;;;;4.63;1.75;;;;;;;;;;5071244;28;20044;-65
2022/09/14 04:13:36;;;;;;;3.15;1.85;;;;;;;;;;5064188;28;20097;-64
2022/09/14 04:16:02;;;;;;;5.20;1.92;;;;;;;;;;5070976;28;20039;-65
2022/09/14 04:18:28;;;;;;;4.05;1.75;;;;;;;;;;5072552;28;20116;-64
2022/09/14 04:20:58;;;;;;;5.57;2.53;;;;;;;;;;5069188;28;20050;-64
2022/09/14 04:23:24;;;;;;;4.47;2.08;;;;;;;;;;5071587;28;20041;-65
2022/09/14 04:25:51;;;;;;;5.80;2.50;;;;;;;;;;5069922;28;20055;-65
2022/09/14 04:28:17;;;;;;;4.57;2.70;;;;;;;;;;5072373;28;20110;-65
2022/09/14 04:30:43;;;;;;;5.15;2.17;;;;;;;;;;5071509;28;20405;-65
2022/09/14 04:33:09;;;;;;;5.13;2.50;;;;;;;;;;5053523;28;20040;-65
2022/09/14 04:35:36;;;;;;;3.95;2.10;;;;;;;;;;5069625;28;20498;-65
2022/09/14 04:38:03;;;;;;;4.15;2.42;;;;;;;;;;5072473;28;20041;-65
2022/09/14 04:40:29;;;;;;;3.78;2.08;;;;;;;;;;5072717;28;20041;-65
2022/09/14 04:42:56;;;;;;;6.30;2.47;;;;;;;;;;5070665;28;20120;-65
2022/09/14 04:45:22;;;;;;;4.70;2.13;;;;;;;;;;5067632;28;20123;-65
2022/09/14 04:47:48;;;;;;;3.28;1.85;;;;;;;;;;5069446;28;20269;-65
2022/09/14 04:50:14;;;;;;;6.05;2.50;;;;;;;;;;5071885;28;20049;-65
2022/09/14 04:52:40;;;;;;;3.00;2.30;;;;;;;;;;5060593;28;20052;-65
2022/09/14 04:55:06;;;;;;;3.53;2.28;;;;;;;;;;5062524;28;20028;-65
2022/09/14 04:57:32;;;;;;;3.92;2.40;;;;;;;;;;5070029;28;20498;-65
2022/09/14 04:59:58;;;;;;;5.68;2.30;;;;;;;;;;5069638;28;20037;-65
2022/09/14 05:02:25;;;;;;;4.75;2.60;;;;;;;;;;5067873;28;20036;-65
2022/09/14 05:04:51;;;;;;;5.43;2.10;;;;;;;;;;5079878;22;20060;-66
2022/09/14 05:07:17;;;;;;;3.90;2.20;;;;;;;;;;5045368;28;20124;-67
2022/09/14 05:09:44;;;;;;;2.40;2.15;;;;;;;;;;5046374;28;20171;-67
2022/09/14 05:12:10;;;;;;;5.93;2.47;;;;;;;;;;5045795;28;20128;-67
2022/09/14 05:14:36;;;;;;;2.38;2.05;;;;;;;;;;5049376;28;20183;-67
2022/09/14 05:17:03;;;;;;;5.63;2.40;;;;;;;;;;5048414;28;20045;-67
2022/09/14 05:19:29;;;;;;;3.55;2.13;;;;;;;;;;5050349;28;20045;-66
2022/09/14 05:21:55;;;;;;;3.92;2.38;;;;;;;;;;5047627;28;20532;-67
2022/09/14 05:24:21;;;;;;;3.15;2.10;;;;;;;;;;5044651;28;20041;-66
2022/09/14 05:26:47;;;;;;;3.33;2.00;;;;;;;;;;5049387;28;20041;-67
2022/09/14 05:29:14;;;;;;;5.40;2.10;;;;;;;;;;5045293;28;20175;-65
2022/09/14 05:31:41;;;;;;;4.70;2.13;;;;;;;;;;5049448;28;20442;-63
2022/09/14 05:34:08;;;;;;;2.60;2.10;;;;;;;;;;5049402;28;20407;-63
2022/09/14 05:36:35;;;;;;;4.50;2.08;;;;;;;;;;5051179;28;20059;-63
2022/09/14 05:39:01;;;;;;;5.63;1.98;;;;;;;;;;5047480;28;20167;-63
2022/09/14 05:41:27;;;;;;;4.95;2.00;;;;;;;;;;5048851;28;20131;-63
2022/09/14 05:43:53;;;;;;;3.88;2.10;;;;;;;;;;5050837;28;20521;-63
2022/09/14 05:46:19;;;;;;;4.03;2.22;;;;;;;;;;5050042;28;20047;-63
2022/09/14 05:48:46;;;;;;;5.38;2.60;;;;;;;;;;5048772;28;20041;-63
2022/09/14 05:51:13;;;;;;;5.70;2.42;;;;;;;;;;5048373;28;20090;-63
2022/09/14 05:53:39;;;;;;;3.70;2.35;;;;;;;;;;5045399;28;20406;-63
2022/09/14 05:56:07;;;;;;;6.53;2.47;;;;;;;;;;5049214;28;20509;-63
2022/09/14 05:58:34;;;;;;;4.00;2.58;;;;;;;;;;5044217;28;20029;-63
2022/09/14 06:01:06;;;;;;;5.05;2.67;;;;;;;;;;5048380;28;20029;-63
2022/09/14 06:03:32;;;;;;;3.90;2.72;;;;;;;;;;5050616;28;20486;-63
2022/09/14 06:05:58;;;;;;;3.60;2.38;;;;;;;;;;5047575;28;20037;-62
2022/09/14 06:08:24;;;;;;;3.47;2.60;;;;;;;;;;5048928;28;20032;-63
2022/09/14 06:10:50;;;;;;;5.55;2.45;;;;;;;;;;5047443;28;20494;-63
2022/09/14 06:13:16;;;;;;;3.78;2.33;;;;;;;;;;5049429;28;20044;-62
2022/09/14 06:15:42;;;;;;;3.30;2.30;;;;;;;;;;5048732;28;20049;-63
2022/09/14 06:18:08;;;;;;;5.10;2.13;;;;;;;;;;5045553;28;20044;-63
2022/09/14 06:20:34;;;;;;;6.68;2.70;;;;;;;;;;5049994;28;20047;-63
2022/09/14 06:23:00;;;;;;;2.88;2.30;;;;;;;;;;5049820;28;20460;-63
2022/09/14 06:25:27;;;;;;;3.67;2.22;;;;;;;;;;5048453;28;20033;-63
2022/09/14 06:27:54;;;;;;;4.53;2.60;;;;;;;;;;5049396;28;20487;-63
2022/09/14 06:30:20;;;;;;;3.78;2.60;;;;;;;;;;5049338;28;20045;-63
2022/09/14 06:32:46;;;;;;;4.93;2.70;;;;;;;;;;5048343;28;20045;-62
2022/09/14 06:35:12;;;;;;;4.60;2.78;;;;;;;;;;5049225;28;20075;-63
2022/09/14 06:37:38;;;;;;;5.38;2.88;;;;;;;;;;5051040;28;20621;-63
2022/09/14 06:40:04;;;;;;;6.75;3.35;;;;;;;;;;5048101;28;20037;-63
2022/09/14 06:42:30;;;;;;;7.32;3.33;;;;;;;;;;5048067;28;20049;-63
2022/09/14 06:44:56;;;;;;;8.88;3.42;;;;;;;;;;5047541;28;20060;-63
2022/09/14 06:47:22;;;;;;;4.38;3.38;;;;;;;;;;5050467;28;20048;-63
2022/09/14 06:49:49;;;;;;;5.90;3.20;;;;;;;;;;5049453;28;20055;-63
2022/09/14 06:52:15;;;;;;;5.47;3.17;;;;;;;;;;5049317;28;20183;-63
2022/09/14 06:54:41;;;;;;;7.78;4.25;;;;;;;;;;5048876;28;20116;-63
2022/09/14 06:57:07;;;;;;;7.05;3.55;;;;;;;;;;5042377;28;20029;-63
2022/09/14 06:59:33;;;;;;;8.93;3.75;;;;;;;;;;5045047;28;20041;-63
2022/09/14 07:01:59;;;;;;;7.10;3.40;;;;;;;;;;5048939;28;20049;-63
2022/09/14 07:04:26;;;;;;;5.85;3.58;;;;;;;;;;5047265;28;20037;-63
2022/09/14 07:06:52;;;;;;;5.38;3.22;;;;;;;;;;5048892;28;20037;-63
2022/09/14 07:09:19;;;;;;;6.55;3.40;;;;;;;;;;5049608;28;20073;-63
2022/09/14 07:11:45;;;;;;;6.00;3.30;;;;;;;;;;5051599;28;20128;-63
2022/09/14 07:14:11;;;;;;;6.30;3.45;;;;;;;;;;5052447;28;20052;-63
2022/09/14 07:16:38;;;;;;;7.72;3.58;;;;;;;;;;5053126;28;20069;-63
2022/09/14 07:19:06;;;;;;;7.50;3.72;;;;;;;;;;5053341;28;20464;-63
2022/09/14 07:21:32;;;;;;;7.90;3.70;;;;;;;;;;5052942;28;20079;-63
2022/09/14 07:23:59;;;;;;;5.80;3.38;;;;;;;;;;5052272;28;20048;-63
2022/09/14 07:26:29;;;;;;;9.00;3.40;;;;;;;;;;5054033;28;20540;-63
2022/09/14 07:28:56;;;;;;;5.63;3.22;;;;;;;;;;5054353;28;20378;-63
2022/09/14 07:31:23;;;;;;;8.05;3.83;;;;;;;;;;5053310;28;20132;-63
2022/09/14 07:33:52;;;;;;;5.88;2.88;;;;;;;;;;5051302;28;20043;-63
2022/09/14 07:36:18;;;;;;;7.10;3.53;;;;;;;;;;5052508;28;20060;-63
2022/09/14 07:38:44;;;;;;;8.50;3.58;;;;;;;;;;5053376;28;20167;-63
2022/09/14 07:41:10;;;;;;;7.13;3.30;;;;;;;;;;5053536;28;20076;-63
2022/09/14 07:43:36;;;;;;;7.22;3.45;;;;;;;;;;5052528;28;20037;-63
2022/09/14 07:46:03;;;;;;;5.35;2.58;;;;;;;;;;5053371;28;20045;-63
2022/09/14 07:48:29;;;;;;;8.48;3.30;;;;;;;;;;5051893;28;20087;-63
2022/09/14 07:51:22;;;;;;;8.65;2.95;;;;;;;;;;5053208;28;20040;-63
2022/09/14 07:53:48;;;;;;;5.72;2.85;;;;;;;;;;5049387;28;20131;-63
2022/09/14 07:56:15;;;;;;;9.27;3.00;;;;;;;;;;5052672;28;20575;-62
2022/09/14 07:58:42;;;;;;;5.90;2.70;;;;;;;;;;5053436;28;20056;-63
2022/09/14 08:01:10;;;;;;;4.38;2.53;;;;;;;;;;5052138;28;20057;-63
2022/09/14 08:03:38;;;;;;;7.60;2.60;;;;;;;;;;5052280;28;20041;-63
2022/09/14 08:06:06;;;;;;;8.50;2.70;;;;;;;;;;5052487;28;20133;-63
2022/09/14 08:08:34;;;;;;;8.82;2.30;;;;;;;;;;5053181;28;20091;-62
2022/09/14 08:11:04;;;;;;;5.38;2.58;;;;;;;;;;5052631;28;20135;-63
2022/09/14 08:13:31;;;;;;;8.35;2.15;;;;;;;;;;5050695;28;20566;-63
2022/09/14 08:15:59;;;;;;;8.25;2.35;;;;;;;;;;5047940;28;20040;-63
2022/09/14 08:18:26;;;;;;;4.68;1.90;;;;;;;;;;5051861;28;20491;-63
2022/09/14 08:20:52;;;;;;;5.70;2.20;;;;;;;;;;5052573;28;20041;-63
2022/09/14 08:23:18;;;;;;;6.80;2.17;;;;;;;;;;5052044;28;20037;-63
2022/09/14 08:25:44;;;;;;;6.78;2.33;;;;;;;;;;5051437;28;20040;-63
2022/09/14 08:28:10;;;;;;;6.07;1.98;;;;;;;;;;5050660;28;20506;-63
2022/09/14 08:30:36;;;;;;;5.95;1.75;;;;;;;;;;5052042;28;20059;-63
2022/09/14 08:33:02;;;;;;;4.47;1.77;;;;;;;;;;5051943;28;20327;-63
2022/09/14 08:35:28;;;;;;;9.43;2.00;;;;;;;;;;5051330;28;20343;-63
2022/09/14 08:37:54;;;;;;;4.63;1.70;;;;;;;;;;5052308;28;20060;-63
2022/09/14 08:40:20;;;;;;;3.90;1.35;;;;;;;;;;5049904;28;20032;-63
2022/09/14 08:42:47;;;;;;;3.83;0.80;;;;;;;;;;5052820;28;20091;-63
2022/09/14 08:45:15;;;;;;;4.25;0.80;;;;;;;;;;5050735;28;20075;-63
2022/09/14 08:47:42;;;;;;;2.33;0.68;;;;;;;;;;5052647;28;20110;-63
2022/09/14 08:50:27;;;;;;;2.85;0.88;;;;;;;;;;5051931;28;20049;-63
2022/09/14 08:52:54;;;;;;;2.60;0.90;;;;;;;;;;5052759;28;20044;-63
2022/09/14 08:55:23;;;;;;;3.33;0.80;;;;;;;;;;5049660;28;20040;-63
2022/09/14 08:57:59;;;;;;;4.30;0.80;;;;;;;;;;5052395;28;20037;-63
2022/09/14 09:00:30;;;;;;;3.72;0.95;;;;;;;;;;5051578;28;20037;-63
2022/09/14 09:02:56;;;;;;;3.28;0.70;;;;;;;;;;5051705;28;20045;-63
2022/09/14 09:05:28;;;;;;;3.33;1.00;;;;;;;;;;5050564;28;20580;-63
2022/09/14 09:07:54;;;;;;;3.03;0.80;;;;;;;;;;5050535;28;20094;-63
2022/09/14 09:10:20;;;;;;;3.15;1.40;;;;;;;;;;5051479;28;20036;-63
2022/09/14 09:12:48;;;;;;;2.92;0.93;;;;;;;;;;5051996;28;20056;-63
2022/09/14 09:15:19;;;;;;;3.38;0.80;;;;;;;;;;5048913;28;20040;-63
2022/09/14 09:17:46;;;;;;;3.25;0.60;;;;;;;;;;5051810;28;20074;-63
2022/09/14 09:20:15;;;;;;;4.00;0.70;;;;;;;;;;5049610;28;20048;-63
2022/09/14 09:22:43;;;;;;;3.88;0.60;;;;;;;;;;5052088;28;20041;-63
2022/09/14 09:25:15;;;;;;;2.22;0.60;;;;;;;;;;5050755;28;20060;-63
2022/09/14 09:27:41;;;;;;;3.75;0.82;;;;;;;;;;5050764;28;20421;-63
2022/09/14 09:30:11;;;;;;;4.68;0.60;;;;;;;;;;5041357;28;20084;-63
2022/09/14 09:32:39;;;;;;;3.78;0.77;;;;;;;;;;5044267;28;20406;-63
2022/09/14 09:35:05;;;;;;;2.47;0.50;;;;;;;;;;5050318;28;20056;-63
2022/09/14 09:37:34;;;;;;;3.60;0.60;;;;;;;;;;5051866;28;20548;-63
2022/09/14 09:40:00;;;;;;;4.40;0.85;;;;;;;;;;5051189;28;20048;-63
2022/09/14 09:42:30;;;;;;;3.95;0.50;;;;;;;;;;5049928;28;20037;-63
2022/09/14 09:45:03;;;;;;;2.70;0.60;;;;;;;;;;5049742;28;20523;-63
2022/09/14 09:47:32;;;;;;;2.63;0.50;;;;;;;;;;5051058;28;20434;-63
2022/09/14 09:49:59;;;;;;;3.75;0.52;;;;;;;;;;5050085;28;20556;-63
2022/09/14 09:52:25;;;;;;;2.15;0.43;;;;;;;;;;5050798;28;20053;-63
2022/09/14 09:54:54;;;;;;;1.25;0.45;;;;;;;;;;5049208;28;21208;-63
2022/09/14 09:57:27;;;;;;;2.80;0.40;;;;;;;;;;5050462;28;20060;-63
2022/09/14 10:00:08;;;;;;;4.05;0.63;;;;;;;;;;5050975;28;20037;-63
2022/09/14 10:02:35;;;;;;;4.03;0.50;;;;;;;;;;5050899;28;20098;-63
2022/09/14 10:05:04;;;;;;;6.05;0.65;;;;;;;;;;5049786;28;20052;-63
2022/09/14 10:07:31;;;;;;;1.85;0.43;;;;;;;;;;5050109;28;20534;-63
2022/09/14 10:10:06;;;;;;;4.05;0.50;;;;;;;;;;5049169;28;20064;-63
2022/09/14 10:12:32;;;;;;;2.42;0.50;;;;;;;;;;5050818;28;20067;-63
2022/09/14 10:15:07;;;;;;;6.72;0.80;;;;;;;;;;5049991;28;20044;-63
2022/09/14 10:17:33;;;;;;;3.35;0.50;;;;;;;;;;5050697;28;20037;-63
2022/09/14 10:19:59;;;;;;;1.75;0.40;;;;;;;;;;5050512;28;20047;-63
2022/09/14 10:22:27;;;;;;;5.20;0.60;;;;;;;;;;5044423;28;20091;-63
2022/09/14 10:24:54;;;;;;;2.00;0.60;;;;;;;;;;5049367;28;20048;-63
2022/09/14 10:27:39;;;;;;;3.92;0.80;;;;;;;;;;5049941;28;20041;-63
2022/09/14 10:30:06;;;;;;;3.35;0.45;;;;;;;;;;5040446;28;20120;-63
2022/09/14 10:32:33;;;;;;;2.55;0.70;;;;;;;;;;5042279;28;20053;-63
2022/09/14 10:34:59;;;;;;;2.50;0.57;;;;;;;;;;5049835;28;20032;-63
2022/09/14 10:37:30;;;;;;;2.63;0.38;;;;;;;;;;5047564;28;20087;-63
2022/09/14 10:40:06;;;;;;;5.20;0.50;;;;;;;;;;5050704;28;20041;-63
2022/09/14 10:42:38;;;;;;;1.80;0.50;;;;;;;;;;5050186;28;20115;-63
2022/09/14 10:45:12;;;;;;;1.77;0.70;;;;;;;;;;5049237;28;20564;-63
2022/09/14 10:47:38;;;;;;;3.15;0.63;;;;;;;;;;5053120;28;20128;-63
2022/09/14 10:50:16;;;;;;;2.65;0.60;;;;;;;;;;5044786;28;20120;-63
2022/09/14 10:52:54;;;;;;;1.75;0.80;;;;;;;;;;5034395;28;20495;-63
2022/09/14 10:55:23;;;;;;;6.85;0.57;;;;;;;;;;5045624;28;20040;-63
2022/09/14 10:57:55;;;;;;;2.83;0.57;;;;;;;;;;5054933;28;20041;-63
2022/09/14 11:00:21;;;;;;;1.75;0.63;;;;;;;;;;5054024;28;20439;-63
2022/09/14 11:03:03;;;;;;;3.80;0.70;;;;;;;;;;5053074;28;20495;-63
2022/09/14 11:05:37;;;;;;;1.45;0.43;;;;;;;;;;5071447;22;20040;-64
2022/09/14 11:08:11;;;;;;;2.90;0.50;;;;;;;;;;5093131;28;20043;-65
2022/09/14 11:10:46;;;;;;;1.45;0.60;;;;;;;;;;5094154;28;20032;-64
2022/09/14 11:13:12;;;;;;;2.13;0.50;;;;;;;;;;5094689;28;20072;-64
2022/09/14 11:15:53;;;;;;;4.10;0.85;;;;;;;;;;5090947;28;20471;-64
2022/09/14 11:18:37;;;;;;;2.58;0.60;;;;;;;;;;5085636;28;20489;-64
2022/09/14 11:21:24;;;;;;;1.48;0.57;;;;;;;;;;5085575;28;20044;-64
2022/09/14 11:23:56;;;;;;;2.38;0.60;;;;;;;;;;5074014;28;20095;-65
2022/09/14 11:26:25;;;;;;;3.00;0.68;;;;;;;;;;5092977;28;20032;-64
2022/09/14 11:28:53;;;;;;;4.90;0.70;;;;;;;;;;5091488;28;20449;-64
2022/09/14 11:31:29;;;;;;;2.47;0.57;;;;;;;;;;5091859;28;20075;-64
2022/09/14 11:34:00;;;;;;;1.90;0.70;;;;;;;;;;5073886;28;20052;-64
2022/09/14 11:36:30;;;;;;;4.70;0.77;;;;;;;;;;5093629;28;20401;-64
2022/09/14 11:39:00;;;;;;;2.40;0.70;;;;;;;;;;5093719;28;20054;-64
2022/09/14 11:41:26;;;;;;;2.90;0.68;;;;;;;;;;5093669;28;20498;-65
2022/09/14 11:44:12;;;;;;;2.83;0.88;;;;;;;;;;5092567;28;20051;-64
2022/09/14 11:46:58;;;;;;;2.92;0.63;;;;;;;;;;5093010;28;20570;-65
2022/09/14 11:49:43;;;;;;;1.98;0.85;;;;;;;;;;5093085;28;20051;-64
2022/09/14 11:52:13;;;;;;;2.55;0.60;;;;;;;;;;5093606;28;20479;-65
2022/09/14 11:54:40;;;;;;;4.38;0.70;;;;;;;;;;5092977;28;20036;-64
2022/09/14 11:57:06;;;;;;;1.30;0.50;;;;;;;;;;5090519;28;20040;-65
2022/09/14 11:59:35;;;;;;;2.67;0.63;;;;;;;;;;5081684;28;20044;-64
2022/09/14 12:02:20;;;;;;;5.07;0.70;;;;;;;;;;5074201;28;20044;-64
2022/09/14 12:05:04;;;;;;;1.90;0.60;;;;;;;;;;5093546;28;20119;-64
2022/09/14 12:07:42;;;;;;;4.13;0.85;;;;;;;;;;5093159;28;20040;-65
2022/09/14 12:10:14;;;;;;;3.38;0.65;;;;;;;;;;5093233;28;20582;-64
2022/09/14 12:12:40;;;;;;;4.53;0.80;;;;;;;;;;5090361;28;20044;-64
2022/09/14 12:15:15;;;;;;;1.92;0.60;;;;;;;;;;5092910;28;20036;-64
2022/09/14 12:17:41;;;;;;;2.08;0.68;;;;;;;;;;5092815;28;20046;-64
2022/09/14 12:20:26;;;;;;;1.67;0.50;;;;;;;;;;5091019;28;20040;-64
2022/09/14 12:23:03;;;;;;;4.57;0.80;;;;;;;;;;5091604;28;20043;-64
2022/09/14 12:25:30;;;;;;;3.15;0.95;;;;;;;;;;5092167;28;20090;-65
2022/09/14 12:27:56;;;;;;;2.25;0.50;;;;;;;;;;5084719;28;20540;-65
2022/09/14 12:30:55;;;;;;;2.47;1.35;;;;;;;;;;5091605;28;20044;-64
2022/09/14 12:33:32;;;;;;;3.35;0.80;;;;;;;;;;5069426;28;20090;-64
2022/09/14 12:35:59;;;;;;;5.13;0.73;;;;;;;;;;5072812;28;20075;-64
2022/09/14 12:38:31;;;;;;;1.17;0.65;;;;;;;;;;5078897;28;20498;-64
2022/09/14 12:40:58;;;;;;;2.65;0.73;;;;;;;;;;5085498;28;20066;-64
2022/09/14 12:43:39;;;;;;;2.63;1.00;;;;;;;;;;5084169;28;20067;-64
2022/09/14 12:46:30;;;;;;;4.40;0.90;;;;;;;;;;5092694;28;20401;-64
2022/09/14 12:49:14;;;;;;;4.22;1.08;;;;;;;;;;5092229;28;20119;-65
2022/09/14 12:51:44;;;;;;;3.10;1.08;;;;;;;;;;5091633;28;20047;-65
2022/09/14 12:54:24;;;;;;;2.83;0.77;;;;;;;;;;5089853;28;20093;-65
2022/09/14 12:56:50;;;;;;;2.47;0.90;;;;;;;;;;5086183;28;20044;-65
2022/09/14 12:59:16;;;;;;;3.22;0.88;;;;;;;;;;5092565;28;20032;-65
2022/09/14 13:01:46;;;;;;;3.65;0.98;;;;;;;;;;5092357;28;20443;-65
2022/09/14 13:04:27;;;;;;;4.13;1.00;;;;;;;;;;5089992;28;20127;-64
2022/09/14 13:06:54;;;;;;;3.35;0.80;;;;;;;;;;5083311;28;20040;-64
2022/09/14 13:09:24;;;;;;;2.55;0.90;;;;;;;;;;5091610;28;20051;-64
2022/09/14 13:11:57;;;;;;;4.43;0.90;;;;;;;;;;5092153;28;20055;-64
2022/09/14 13:14:25;;;;;;;4.80;0.95;;;;;;;;;;5090985;28;20044;-64
2022/09/14 13:16:52;;;;;;;3.50;0.88;;;;;;;;;;5092224;28;20048;-65
2022/09/14 13:19:23;;;;;;;2.30;1.00;;;;;;;;;;5090507;28;20032;-64
2022/09/14 13:21:50;;;;;;;3.65;1.00;;;;;;;;;;5077567;28;20051;-65
2022/09/14 13:24:25;;;;;;;3.25;0.98;;;;;;;;;;5088659;28;20420;-64
2022/09/14 13:26:52;;;;;;;2.33;0.80;;;;;;;;;;5091646;28;20051;-65
2022/09/14 13:29:18;;;;;;;4.20;1.00;;;;;;;;;;5091440;28;20039;-64
2022/09/14 13:31:44;;;;;;;3.45;1.08;;;;;;;;;;5090240;28;20127;-64
2022/09/14 13:34:20;;;;;;;5.68;1.40;;;;;;;;;;5090590;28;20036;-65
2022/09/14 13:36:46;;;;;;;4.18;1.08;;;;;;;;;;5090118;28;20044;-65
2022/09/14 13:39:21;;;;;;;3.00;0.80;;;;;;;;;;5089760;28;20119;-64
2022/09/14 13:41:47;;;;;;;2.65;0.60;;;;;;;;;;5091968;28;20101;-65
2022/09/14 13:44:13;;;;;;;3.75;1.00;;;;;;;;;;5090069;28;20047;-65
2022/09/14 13:46:40;;;;;;;3.10;1.17;;;;;;;;;;5089638;28;20051;-65
2022/09/14 13:49:06;;;;;;;4.47;0.98;;;;;;;;;;5090289;28;20074;-65
2022/09/14 13:51:34;;;;;;;3.35;0.90;;;;;;;;;;5079575;28;20044;-64
2022/09/14 13:54:17;;;;;;;3.60;0.82;;;;;;;;;;5085804;28;20039;-65
2022/09/14 13:56:43;;;;;;;4.35;1.10;;;;;;;;;;5091106;28;20040;-64
2022/09/14 13:59:10;;;;;;;4.88;1.05;;;;;;;;;;5091012;28;20047;-64
2022/09/14 14:01:40;;;;;;;2.90;0.80;;;;;;;;;;5090326;28;20039;-64
2022/09/14 14:04:20;;;;;;;2.97;0.97;;;;;;;;;;5088627;28;20508;-64
2022/09/14 14:06:57;;;;;;;3.30;1.00;;;;;;;;;;5071008;28;20051;-65
2022/09/14 14:09:23;;;;;;;2.75;0.80;;;;;;;;;;5087996;28;20123;-64
2022/09/14 14:11:56;;;;;;;4.35;1.02;;;;;;;;;;5088743;28;20565;-65
2022/09/14 14:14:23;;;;;;;3.92;1.00;;;;;;;;;;5089941;28;20032;-65
2022/09/14 14:17:08;;;;;;;3.25;1.05;;;;;;;;;;5090999;28;20036;-64
2022/09/14 14:19:34;;;;;;;5.68;0.93;;;;;;;;;;5090636;28;20051;-65
2022/09/14 14:22:15;;;;;;;3.22;1.00;;;;;;;;;;5090765;28;20039;-65
2022/09/14 14:24:42;;;;;;;3.45;0.95;;;;;;;;;;5086671;28;20039;-65
2022/09/14 14:27:27;;;;;;;5.53;1.10;;;;;;;;;;5090451;28;20090;-65
2022/09/14 14:29:53;;;;;;;3.95;0.88;;;;;;;;;;5070633;28;20048;-65
2022/09/14 14:32:19;;;;;;;3.17;1.02;;;;;;;;;;5070712;28;20067;-64
2022/09/14 14:34:45;;;;;;;3.47;0.85;;;;;;;;;;5090705;28;20405;-65
2022/09/14 14:37:11;;;;;;;8.00;1.02;;;;;;;;;;5090446;28;20040;-64
2022/09/14 14:39:37;;;;;;;4.93;0.80;;;;;;;;;;5089121;28;20039;-64
2022/09/14 14:42:04;;;;;;;2.70;0.90;;;;;;;;;;5083156;28;20045;-65
2022/09/14 14:44:30;;;;;;;4.20;1.02;;;;;;;;;;5089684;28;20036;-65
2022/09/14 14:46:59;;;;;;;5.47;0.98;;;;;;;;;;5087126;28;20344;-66
2022/09/14 14:49:30;;;;;;;7.05;1.42;;;;;;;;;;5083295;28;20040;-65
2022/09/14 14:51:57;;;;;;;3.85;0.80;;;;;;;;;;5089331;28;20036;-64
2022/09/14 14:54:23;;;;;;;3.22;0.70;;;;;;;;;;5077328;28;20045;-64
2022/09/14 14:56:50;;;;;;;3.00;0.85;;;;;;;;;;5082867;28;20044;-64